createdAt,value
2017-09-24T00:02:33.199Z,1015.54
2017-09-24T00:12:33.169Z,1015.51
2017-09-24T00:22:33.221Z,1015.43
2017-09-24T00:32:33.185Z,1015.48
2017-09-24T00:42:33.156Z,1015.47
2017-09-24T00:52:33.219Z,1015.44
2017-09-24T01:02:33.183Z,1015.41
2017-09-24T01:12:33.140Z,1015.34
2017-09-24T01:22:33.202Z,1015.39
2017-09-24T01:32:33.156Z,1015.41
2017-09-24T01:42:36.489Z,1015.37
2017-09-24T01:52:33.179Z,1015.39
2017-09-24T02:02:33.154Z,1015.41
2017-09-24T02:12:33.223Z,1015.35
2017-09-24T02:22:33.171Z,1015.36
2017-09-24T02:32:33.112Z,1015.33
2017-09-24T02:42:33.188Z,1015.34
2017-09-24T02:52:35.211Z,1015.35
2017-09-24T03:02:33.110Z,1015.28
2017-09-24T03:12:33.186Z,1015.27
2017-09-24T03:22:33.148Z,1015.2
2017-09-24T03:32:34.125Z,1015.16
2017-09-24T03:42:33.168Z,1015.08
2017-09-24T03:52:33.121Z,1015.04
2017-09-24T04:02:33.179Z,1015.01
2017-09-24T04:12:33.159Z,1015.05
2017-09-24T04:22:33.215Z,1015.05
2017-09-24T04:32:33.162Z,1015.15
2017-09-24T04:42:33.129Z,1015.23
2017-09-24T04:52:33.194Z,1015.19
2017-09-24T05:02:33.147Z,1015.3
2017-09-24T05:12:33.422Z,1015.38
2017-09-24T05:23:02.403Z,1015.55
2017-09-24T05:33:02.419Z,1015.46
2017-09-24T05:43:02.471Z,1015.47
2017-09-24T05:53:02.445Z,1015.51
2017-09-24T06:03:02.473Z,1015.55
2017-09-24T06:13:02.441Z,1015.49
2017-09-24T06:23:02.536Z,1015.58
2017-09-24T06:33:02.391Z,1015.68
2017-09-24T06:43:02.438Z,1015.77
2017-09-24T06:53:02.480Z,1015.88
2017-09-24T07:03:03.465Z,1015.87
2017-09-24T07:13:02.416Z,1015.95
2017-09-24T07:23:02.502Z,1015.96
2017-09-24T07:33:02.433Z,1016.18
2017-09-24T07:43:03.411Z,1016.06
2017-09-24T07:53:02.474Z,1016.17
2017-09-24T08:03:02.419Z,1016.16
2017-09-24T08:13:02.471Z,1016.23
2017-09-24T08:23:04.502Z,1016.17
2017-09-24T08:33:02.394Z,1016.15
2017-09-24T08:43:02.465Z,1016.31
2017-09-24T08:53:02.476Z,1016.33
2017-09-24T09:03:02.448Z,1016.36
2017-09-24T09:13:02.493Z,1016.34
2017-09-24T09:23:02.470Z,1016.36
2017-09-24T09:33:02.588Z,1016.38
2017-09-24T09:43:02.474Z,1016.18
2017-09-24T09:53:02.448Z,1016.23
2017-09-24T10:03:02.424Z,1016.14
2017-09-24T10:13:02.377Z,1016.1
2017-09-24T10:23:02.387Z,1016.08
2017-09-24T10:33:02.392Z,1016.04
2017-09-24T10:43:02.659Z,1015.99
2017-09-24T10:53:02.398Z,1015.96
2017-09-24T11:03:02.391Z,1015.95
2017-09-24T11:13:02.399Z,1015.86
2017-09-24T11:23:02.393Z,1015.92
2017-09-24T11:33:02.388Z,1015.92
2017-09-24T11:43:02.392Z,1015.87
2017-09-24T11:53:02.415Z,1015.87
2017-09-24T12:03:02.387Z,1015.86
2017-09-24T12:13:02.406Z,1015.82
2017-09-24T12:23:02.403Z,1015.83
2017-09-24T12:33:02.448Z,1015.85
2017-09-24T12:43:02.423Z,1015.86
2017-09-24T12:53:02.425Z,1015.8
2017-09-24T13:03:02.445Z,1015.74
2017-09-24T13:13:03.241Z,1015.73
2017-09-24T13:23:02.403Z,1015.7
2017-09-24T13:33:02.410Z,1015.69
2017-09-24T13:43:02.407Z,1015.67
2017-09-24T13:53:02.403Z,1015.57
2017-09-24T14:03:02.410Z,1015.52
2017-09-24T14:13:02.424Z,1015.44
2017-09-24T14:23:02.405Z,1015.48
2017-09-24T14:33:02.412Z,1015.45
2017-09-24T14:43:02.413Z,1015.42
2017-09-24T14:53:02.437Z,1015.42
2017-09-24T15:03:02.473Z,1015.41
2017-09-24T15:13:02.419Z,1015.44
2017-09-24T15:23:02.438Z,1015.5
2017-09-24T15:33:02.427Z,1015.55
2017-09-24T15:43:02.435Z,1015.61
2017-09-24T15:53:02.448Z,1015.51
2017-09-24T16:03:02.438Z,1015.52
2017-09-24T16:13:02.434Z,1015.48
2017-09-24T16:23:02.416Z,1015.54
2017-09-24T16:33:02.441Z,1015.57
2017-09-24T16:43:02.490Z,1015.69
2017-09-24T16:53:02.416Z,1015.78
2017-09-24T17:03:02.424Z,1015.78
2017-09-24T17:13:02.425Z,1015.87
2017-09-24T17:23:02.450Z,1015.82
2017-09-24T17:33:02.529Z,1015.86
2017-09-24T17:43:02.457Z,1015.83
2017-09-24T17:53:02.541Z,1015.84
2017-09-24T18:03:02.489Z,1015.84
2017-09-24T18:13:02.499Z,1015.95
2017-09-24T18:23:02.509Z,1015.97
2017-09-24T18:33:02.473Z,1016.01
2017-09-24T18:43:02.530Z,1015.99
2017-09-24T18:53:02.927Z,1015.99
2017-09-24T19:03:03.029Z,1016.08
2017-09-24T19:13:02.958Z,1016.1
2017-09-24T19:23:02.572Z,1016.11
2017-09-24T19:33:02.671Z,1016.1
2017-09-24T19:43:02.995Z,1016.04
2017-09-24T19:53:02.819Z,1015.94
2017-09-24T20:03:02.459Z,1015.91
2017-09-24T20:13:02.541Z,1015.97
2017-09-24T20:23:02.595Z,1015.96
2017-09-24T20:33:02.514Z,1016.03
2017-09-24T20:43:02.479Z,1016.01
2017-09-24T20:53:02.457Z,1016.02
2017-09-24T21:03:02.559Z,1016.03
2017-09-24T21:13:02.472Z,1015.99
2017-09-24T21:23:02.530Z,1016.01
2017-09-24T21:33:02.475Z,1016.01
2017-09-24T21:43:02.532Z,1016.06
2017-09-24T21:53:02.819Z,1016.02
2017-09-24T22:03:02.574Z,1015.91
2017-09-24T22:13:02.536Z,1015.84
2017-09-24T22:23:02.623Z,1015.75
2017-09-24T22:33:02.569Z,1015.71
2017-09-24T22:43:02.526Z,1015.67
2017-09-24T22:53:02.586Z,1015.66
2017-09-24T23:03:02.610Z,1015.65
2017-09-24T23:13:02.600Z,1015.68
2017-09-24T23:23:02.558Z,1015.67
2017-09-24T23:33:02.626Z,1015.61
2017-09-24T23:43:02.598Z,1015.66
2017-09-24T23:53:02.655Z,1015.6
